createdAt,value
2022-08-18T00:00:54.605Z,6.25
2022-08-18T00:02:18.373Z,5.60
2022-08-18T00:03:52.170Z,6.25
2022-08-18T00:04:49.057Z,5.47
2022-08-18T00:05:53.576Z,6.75
2022-08-18T00:06:57.489Z,6.85
2022-08-18T00:08:02.040Z,6.05
2022-08-18T00:09:09.196Z,5.57
2022-08-18T00:10:18.670Z,5.70
2022-08-18T00:11:24.509Z,6.07
2022-08-18T00:12:41.477Z,6.35
2022-08-18T00:13:45.387Z,6.90
2022-08-18T00:14:50.210Z,6.80
2022-08-18T00:15:54.295Z,5.78
2022-08-18T00:16:58.372Z,7.40
2022-08-18T00:18:02.126Z,7.55
2022-08-18T00:19:09.385Z,6.20
2022-08-18T00:20:25.524Z,6.25
2022-08-18T00:21:29.394Z,6.50
2022-08-18T00:22:33.654Z,6.57
2022-08-18T00:23:38.889Z,6.38
2022-08-18T00:24:48.415Z,6.03
2022-08-18T00:25:52.940Z,5.43
2022-08-18T00:26:57.089Z,5.88
2022-08-18T00:28:00.988Z,6.32
2022-08-18T00:29:05.146Z,6.82
2022-08-18T00:30:17.163Z,6.65
2022-08-18T00:31:20.901Z,5.82
2022-08-18T00:32:39.237Z,6.43
2022-08-18T00:33:43.841Z,6.50
2022-08-18T00:34:47.901Z,6.38
2022-08-18T00:35:52.344Z,6.93
2022-08-18T00:36:56.247Z,5.25
2022-08-18T00:38:05.621Z,6.05
2022-08-18T00:39:10.087Z,5.60
2022-08-18T00:40:28.480Z,5.90
2022-08-18T00:41:32.426Z,6.20
2022-08-18T00:42:45.457Z,5.50
2022-08-18T00:43:52.392Z,5.32
2022-08-18T00:44:57.591Z,5.72
2022-08-18T00:46:02.331Z,6.18
2022-08-18T00:47:06.664Z,6.00
2022-08-18T00:48:14.353Z,6.15
2022-08-18T00:49:18.598Z,5.85
2022-08-18T00:50:45.543Z,6.72
2022-08-18T00:51:52.385Z,6.40
2022-08-18T00:53:37.359Z,5.45
2022-08-18T00:54:45.282Z,6.20
2022-08-18T00:55:54.413Z,6.65
2022-08-18T00:57:06.951Z,5.90
2022-08-18T00:58:23.951Z,6.03
2022-08-18T00:59:51.231Z,6.07
2022-08-18T01:00:55.361Z,5.75
2022-08-18T01:02:04.680Z,5.80
2022-08-18T01:03:24.424Z,5.65
2022-08-18T01:04:44.495Z,6.63
2022-08-18T01:06:02.257Z,6.82
2022-08-18T01:07:20.725Z,6.07
2022-08-18T01:08:29.074Z,5.95
2022-08-18T01:09:33.715Z,6.22
2022-08-18T01:10:39.731Z,6.75
2022-08-18T01:11:44.597Z,6.53
2022-08-18T01:12:54.784Z,7.20
2022-08-18T01:13:59.365Z,6.68
2022-08-18T01:15:03.821Z,5.38
2022-08-18T01:16:28.369Z,5.85
2022-08-18T01:17:51.661Z,5.28
2022-08-18T01:19:14.264Z,7.40
2022-08-18T01:21:21.275Z,6.40
2022-08-18T01:22:41.852Z,6.00
2022-08-18T01:23:48.062Z,6.05
2022-08-18T01:25:16.157Z,7.22
2022-08-18T01:26:23.016Z,5.53
2022-08-18T01:27:31.510Z,6.47
2022-08-18T01:28:42.042Z,6.18
2022-08-18T01:29:49.315Z,6.00
2022-08-18T01:30:58.436Z,6.70
2022-08-18T01:32:02.468Z,6.18
2022-08-18T01:33:12.526Z,5.93
2022-08-18T01:34:16.902Z,7.00
2022-08-18T01:35:25.757Z,6.78
2022-08-18T01:36:29.913Z,6.47
2022-08-18T01:37:33.823Z,6.22
2022-08-18T01:38:38.185Z,7.22
2022-08-18T01:41:23.964Z,6.30
2022-08-18T01:41:26.974Z,6.43
2022-08-18T01:42:31.821Z,6.47
2022-08-18T01:43:38.309Z,6.15
2022-08-18T01:44:42.314Z,7.10
2022-08-18T01:45:46.372Z,6.28
2022-08-18T01:46:53.233Z,7.28
2022-08-18T01:47:59.882Z,6.47
2022-08-18T01:49:05.434Z,6.40
2022-08-18T01:50:12.851Z,6.85
2022-08-18T01:51:19.907Z,7.00
2022-08-18T01:52:24.632Z,6.20
2022-08-18T01:53:29.243Z,6.53
2022-08-18T01:54:34.098Z,6.38
2022-08-18T01:55:45.434Z,6.75
2022-08-18T01:56:49.640Z,7.35
2022-08-18T01:57:53.530Z,6.30
2022-08-18T01:58:57.754Z,7.03
2022-08-18T02:00:02.029Z,7.18
2022-08-18T02:01:06.446Z,7.50
2022-08-18T02:02:24.690Z,7.45
2022-08-18T02:03:39.947Z,6.53
2022-08-18T02:04:45.331Z,6.78
2022-08-18T02:05:51.214Z,6.80
2022-08-18T02:06:58.890Z,6.78
2022-08-18T02:08:04.994Z,5.32
2022-08-18T02:09:09.300Z,6.63
2022-08-18T02:10:37.638Z,6.22
2022-08-18T02:11:41.592Z,6.80
2022-08-18T02:12:45.876Z,6.15
2022-08-18T02:13:49.694Z,6.68
2022-08-18T02:14:53.589Z,7.32
2022-08-18T02:15:57.537Z,7.95
2022-08-18T02:17:04.140Z,6.45
2022-08-18T02:18:32.447Z,7.10
2022-08-18T02:19:48.273Z,6.50
2022-08-18T02:20:51.912Z,6.53
2022-08-18T02:21:55.745Z,6.80
2022-08-18T02:22:59.545Z,6.70
2022-08-18T02:24:03.722Z,7.32
2022-08-18T02:25:09.968Z,7.07
2022-08-18T02:26:17.772Z,7.60
2022-08-18T02:27:22.737Z,7.65
2022-08-18T02:28:30.597Z,6.97
2022-08-18T02:29:36.409Z,6.10
2022-08-18T02:30:41.197Z,7.15
2022-08-18T02:31:45.239Z,7.93
2022-08-18T02:32:49.820Z,7.38
2022-08-18T02:33:54.089Z,7.28
2022-08-18T02:34:58.025Z,7.20
2022-08-18T02:36:03.262Z,6.68
2022-08-18T02:37:10.835Z,7.20
2022-08-18T02:38:17.496Z,8.15
2022-08-18T02:39:21.906Z,6.43
2022-08-18T02:40:26.305Z,7.45
2022-08-18T02:41:31.415Z,7.05
2022-08-18T02:42:35.124Z,7.32
2022-08-18T02:43:41.598Z,7.53
2022-08-18T02:44:45.609Z,7.30
2022-08-18T02:45:49.393Z,6.85
2022-08-18T02:46:55.176Z,6.30
2022-08-18T02:47:58.857Z,7.68
2022-08-18T02:49:03.673Z,7.18
2022-08-18T02:50:10.983Z,8.23
2022-08-18T02:51:17.855Z,7.60
2022-08-18T02:52:21.928Z,7.97
2022-08-18T02:53:25.602Z,7.30
2022-08-18T02:54:29.502Z,7.80
2022-08-18T02:55:33.583Z,8.00
2022-08-18T02:56:41.976Z,8.75
2022-08-18T02:57:49.263Z,8.07
2022-08-18T02:59:05.460Z,8.35
2022-08-18T03:00:19.029Z,8.00
2022-08-18T03:01:32.607Z,8.40
2022-08-18T03:02:36.677Z,7.57
2022-08-18T03:03:40.464Z,7.72
2022-08-18T03:04:44.456Z,7.80
2022-08-18T03:05:48.624Z,8.63
2022-08-18T03:06:53.282Z,8.88
2022-08-18T03:07:57.499Z,8.32
2022-08-18T03:09:01.964Z,8.98
2022-08-18T03:10:32.800Z,8.40
2022-08-18T03:11:32.312Z,8.25
2022-08-18T03:12:36.584Z,6.88
2022-08-18T03:13:40.377Z,7.15
2022-08-18T03:14:44.173Z,7.82
2022-08-18T03:15:51.184Z,8.60
2022-08-18T03:16:58.685Z,8.48
2022-08-18T03:18:02.626Z,8.20
2022-08-18T03:19:06.822Z,7.85
2022-08-18T03:20:11.290Z,8.35
2022-08-18T03:21:23.888Z,7.65
2022-08-18T03:22:29.586Z,9.50
2022-08-18T03:23:34.764Z,8.85
2022-08-18T03:24:38.977Z,8.05
2022-08-18T03:25:49.515Z,7.85
2022-08-18T03:26:56.979Z,8.93
2022-08-18T03:28:04.232Z,7.03
2022-08-18T03:29:08.241Z,8.70
2022-08-18T03:30:14.146Z,8.55
2022-08-18T03:31:21.185Z,7.65
2022-08-18T03:32:27.826Z,7.88
2022-08-18T03:33:31.710Z,8.77
2022-08-18T03:34:35.624Z,8.13
2022-08-18T03:35:39.963Z,7.75
2022-08-18T03:36:45.697Z,7.30
2022-08-18T03:37:49.607Z,7.93
2022-08-18T03:38:54.645Z,9.23
2022-08-18T03:39:58.563Z,7.50
2022-08-18T03:41:02.739Z,9.07
2022-08-18T03:42:06.750Z,8.23
2022-08-18T03:43:50.220Z,8.75
2022-08-18T03:44:37.792Z,9.45
2022-08-18T03:45:41.793Z,7.93
2022-08-18T03:46:46.033Z,8.25
2022-08-18T03:47:52.727Z,8.05
2022-08-18T03:48:58.788Z,9.15
2022-08-18T03:50:02.632Z,8.45
2022-08-18T03:51:10.802Z,7.07
2022-08-18T03:52:15.196Z,8.30
2022-08-18T03:53:19.706Z,8.43
2022-08-18T03:54:24.330Z,7.90
2022-08-18T03:55:29.703Z,8.43
2022-08-18T03:56:40.128Z,8.13
2022-08-18T03:59:12.872Z,7.03
2022-08-18T04:00:18.613Z,7.60
2022-08-18T04:01:27.685Z,8.70
2022-08-18T04:02:31.539Z,7.28
2022-08-18T04:03:37.153Z,7.38
2022-08-18T04:04:43.165Z,8.25
2022-08-18T04:05:48.002Z,8.45
2022-08-18T04:07:00.843Z,8.73
2022-08-18T04:08:06.854Z,8.10
2022-08-18T04:09:15.405Z,9.05
2022-08-18T04:10:19.927Z,8.68
2022-08-18T04:11:25.691Z,9.18
2022-08-18T04:12:30.524Z,8.80
2022-08-18T04:13:37.455Z,9.25
2022-08-18T04:14:43.832Z,8.40
2022-08-18T04:15:47.927Z,8.48
2022-08-18T04:16:52.946Z,9.00
2022-08-18T04:18:06.375Z,8.73
2022-08-18T04:19:13.956Z,8.40
2022-08-18T04:20:18.270Z,9.77
2022-08-18T04:21:23.885Z,9.27
2022-08-18T04:22:27.906Z,8.10
2022-08-18T04:23:43.412Z,9.18
2022-08-18T04:24:50.664Z,7.47
2022-08-18T04:26:00.188Z,8.25
2022-08-18T04:27:05.348Z,9.43
2022-08-18T04:28:09.495Z,9.38
2022-08-18T04:29:17.491Z,9.65
2022-08-18T04:30:21.954Z,7.93
2022-08-18T04:31:26.616Z,8.27
2022-08-18T04:32:32.201Z,9.48
2022-08-18T04:33:36.673Z,9.77
2022-08-18T04:34:40.620Z,9.63
2022-08-18T04:35:44.469Z,8.52
2022-08-18T04:36:50.743Z,7.45
2022-08-18T04:37:55.106Z,8.27
2022-08-18T04:38:59.263Z,8.20
2022-08-18T04:40:04.058Z,7.75
2022-08-18T04:41:14.023Z,7.13
2022-08-18T04:42:17.873Z,7.45
2022-08-18T04:43:21.719Z,8.25
2022-08-18T04:44:25.737Z,7.20
2022-08-18T04:45:30.242Z,8.93
2022-08-18T04:46:41.302Z,9.45
2022-08-18T04:47:45.136Z,8.05
2022-08-18T04:48:49.467Z,7.80
2022-08-18T04:49:53.392Z,8.55
2022-08-18T04:50:57.189Z,8.15
2022-08-18T04:52:36.865Z,7.43
2022-08-18T04:53:46.423Z,6.95
2022-08-18T04:54:51.079Z,6.78
2022-08-18T04:55:56.527Z,7.20
2022-08-18T04:57:08.092Z,9.10
2022-08-18T04:58:11.813Z,7.82
2022-08-18T04:59:15.641Z,8.23
2022-08-18T05:00:20.515Z,7.45
2022-08-18T05:01:30.357Z,8.32
2022-08-18T05:02:35.386Z,7.88
2022-08-18T05:03:41.249Z,7.72
2022-08-18T05:04:55.877Z,6.78
2022-08-18T05:06:07.511Z,7.47
2022-08-18T05:07:12.728Z,7.93
2022-08-18T05:08:16.839Z,8.48
2022-08-18T05:09:23.173Z,8.68
2022-08-18T05:10:27.211Z,9.00
2022-08-18T05:11:35.994Z,8.73
2022-08-18T05:12:43.892Z,8.35
2022-08-18T05:13:50.295Z,9.23
2022-08-18T05:14:57.499Z,8.32
2022-08-18T05:16:11.678Z,8.48
2022-08-18T05:17:20.935Z,7.65
2022-08-18T05:18:26.724Z,8.38
2022-08-18T05:19:31.818Z,8.45
2022-08-18T05:20:38.148Z,8.80
2022-08-18T05:21:42.472Z,8.18
2022-08-18T05:22:46.455Z,9.02
2022-08-18T05:23:51.396Z,8.98
2022-08-18T05:26:34.106Z,9.10
2022-08-18T05:27:43.893Z,9.45
2022-08-18T05:28:48.767Z,8.95
2022-08-18T05:29:59.589Z,8.60
2022-08-18T05:31:20.060Z,9.27
2022-08-18T05:32:37.340Z,8.63
2022-08-18T05:33:48.650Z,8.25
2022-08-18T05:34:52.589Z,10.27
2022-08-18T05:36:06.182Z,9.65
2022-08-18T05:37:27.978Z,10.18
2022-08-18T05:38:37.433Z,7.65
2022-08-18T05:39:58.636Z,10.73
2022-08-18T05:41:13.770Z,8.93
2022-08-18T05:42:23.092Z,9.43
2022-08-18T05:43:27.108Z,9.82
2022-08-18T05:44:36.643Z,10.82
2022-08-18T05:45:42.470Z,9.73
2022-08-18T05:47:05.102Z,9.40
2022-08-18T05:48:08.837Z,9.63
2022-08-18T05:49:15.909Z,9.93
2022-08-18T05:50:21.715Z,9.73
2022-08-18T05:51:37.189Z,9.93
2022-08-18T05:52:55.762Z,10.32
2022-08-18T05:54:21.338Z,9.88
2022-08-18T05:55:58.772Z,9.55
2022-08-18T05:57:14.837Z,10.45
2022-08-18T05:58:52.102Z,9.00
2022-08-18T05:59:57.970Z,10.05
2022-08-18T06:01:30.913Z,10.35
2022-08-18T06:02:34.919Z,9.50
2022-08-18T06:03:56.950Z,10.13
2022-08-18T06:05:45.083Z,11.20
2022-08-18T06:06:50.418Z,8.85
2022-08-18T06:08:06.193Z,9.00
2022-08-18T06:09:39.465Z,8.10
2022-08-18T06:10:51.247Z,9.40
2022-08-18T06:12:09.247Z,9.70
2022-08-18T06:13:13.712Z,7.88
2022-08-18T06:14:19.394Z,9.80
2022-08-18T06:15:54.777Z,9.73
2022-08-18T06:17:28.666Z,8.80
2022-08-18T06:18:51.425Z,7.85
2022-08-18T06:20:19.776Z,7.60
2022-08-18T06:21:48.679Z,9.05
2022-08-18T06:23:19.096Z,8.23
2022-08-18T06:24:37.275Z,8.80
2022-08-18T06:26:21.050Z,9.57
2022-08-18T06:27:55.897Z,8.02
2022-08-18T06:29:30.404Z,8.15
2022-08-18T06:30:55.414Z,8.80
2022-08-18T06:32:30.773Z,10.35
2022-08-18T06:34:02.032Z,9.25
2022-08-18T06:35:24.186Z,8.23
2022-08-18T06:37:07.522Z,9.90
2022-08-18T06:38:38.521Z,8.32
2022-08-18T06:39:53.035Z,8.55
2022-08-18T06:41:40.486Z,9.07
2022-08-18T06:42:48.396Z,9.60
2022-08-18T06:44:21.039Z,9.68
2022-08-18T06:45:39.851Z,9.77
2022-08-18T06:46:55.196Z,9.55
2022-08-18T06:48:19.214Z,8.10
2022-08-18T06:49:48.680Z,8.13
2022-08-18T06:51:03.110Z,7.80
2022-08-18T06:52:29.427Z,8.20
2022-08-18T06:54:00.770Z,8.77
2022-08-18T06:55:17.576Z,7.10
2022-08-18T06:56:35.434Z,7.03
2022-08-18T06:57:58.478Z,6.43
2022-08-18T06:59:23.783Z,7.03
2022-08-18T07:00:32.983Z,6.55
2022-08-18T07:01:38.945Z,6.65
2022-08-18T07:02:54.787Z,5.90
2022-08-18T07:03:58.613Z,6.30
2022-08-18T07:05:08.229Z,6.53
2022-08-18T07:06:24.104Z,5.22
2022-08-18T07:07:43.596Z,5.85
2022-08-18T07:08:50.719Z,5.10
2022-08-18T07:09:56.057Z,5.72
2022-08-18T07:11:23.644Z,6.55
2022-08-18T07:12:32.849Z,5.43
2022-08-18T07:13:42.053Z,4.88
2022-08-18T07:14:52.370Z,5.28
2022-08-18T07:16:26.303Z,4.53
2022-08-18T07:17:43.428Z,6.10
2022-08-18T07:18:48.604Z,4.60
2022-08-18T07:20:09.687Z,5.15
2022-08-18T07:21:32.995Z,5.75
2022-08-18T07:23:01.092Z,5.30
2022-08-18T07:24:32.347Z,4.78
2022-08-18T07:25:45.807Z,4.28
2022-08-18T07:27:05.847Z,4.30
2022-08-18T07:28:37.399Z,5.15
2022-08-18T07:30:44.110Z,4.18
2022-08-18T07:31:58.574Z,4.32
2022-08-18T07:33:24.391Z,4.68
2022-08-18T07:34:37.593Z,4.00
2022-08-18T07:35:58.395Z,5.50
2022-08-18T07:37:14.561Z,3.95
2022-08-18T07:38:42.984Z,4.03
2022-08-18T07:40:05.406Z,4.40
2022-08-18T07:41:20.719Z,4.13
2022-08-18T07:43:01.593Z,3.75
2022-08-18T07:44:13.859Z,4.15
2022-08-18T07:45:37.314Z,4.70
2022-08-18T07:47:07.320Z,4.20
2022-08-18T07:48:38.197Z,4.75
2022-08-18T07:50:13.890Z,4.00
2022-08-18T07:51:24.870Z,3.72
2022-08-18T07:53:14.440Z,4.03
2022-08-18T07:54:49.331Z,3.05
2022-08-18T07:56:15.139Z,3.33
2022-08-18T07:58:00.596Z,3.88
2022-08-18T07:59:22.557Z,3.25
2022-08-18T08:00:59.927Z,3.65
2022-08-18T08:02:32.321Z,2.72
2022-08-18T08:04:34.279Z,2.95
2022-08-18T08:06:00.424Z,3.35
2022-08-18T08:07:25.547Z,3.22
2022-08-18T08:08:34.660Z,3.05
2022-08-18T08:10:29.542Z,3.00
2022-08-18T08:12:11.607Z,3.40
2022-08-18T08:13:53.405Z,3.92
2022-08-18T08:15:26.932Z,2.75
2022-08-18T08:17:04.319Z,2.90
2022-08-18T08:18:33.969Z,3.22
2022-08-18T08:20:01.200Z,3.30
2022-08-18T08:21:11.258Z,3.05
2022-08-18T08:22:53.879Z,3.15
2022-08-18T08:24:21.234Z,3.40
2022-08-18T08:25:47.420Z,2.60
2022-08-18T08:27:12.197Z,3.63
2022-08-18T08:28:43.105Z,3.40
2022-08-18T08:30:10.980Z,3.42
2022-08-18T08:31:37.186Z,3.60
2022-08-18T08:32:59.889Z,3.33
2022-08-18T08:34:42.130Z,3.50
2022-08-18T08:36:04.960Z,3.45
2022-08-18T08:37:24.912Z,3.85
2022-08-18T08:38:44.619Z,3.63
2022-08-18T08:40:01.337Z,3.40
2022-08-18T08:41:16.100Z,4.15
2022-08-18T08:43:04.871Z,3.53
2022-08-18T08:44:24.248Z,3.28
2022-08-18T08:45:46.218Z,3.70
2022-08-18T08:47:08.105Z,3.90
2022-08-18T08:48:27.899Z,3.53
2022-08-18T08:49:45.609Z,3.33
2022-08-18T08:51:32.192Z,3.35
2022-08-18T08:52:57.381Z,3.45
2022-08-18T08:54:26.625Z,4.00
2022-08-18T08:55:37.472Z,4.47
2022-08-18T08:56:47.992Z,3.90
2022-08-18T08:58:18.362Z,3.90
2022-08-18T09:02:48.546Z,3.88
2022-08-18T09:04:39.636Z,3.10
2022-08-18T09:06:53.282Z,3.78
2022-08-18T09:08:37.259Z,4.10
2022-08-18T09:10:23.553Z,3.67
2022-08-18T09:11:55.641Z,3.85
2022-08-18T09:13:53.266Z,3.63
2022-08-18T09:15:36.294Z,3.45
2022-08-18T09:16:59.713Z,3.85
2022-08-18T09:18:47.972Z,3.67
2022-08-18T09:20:35.727Z,3.88
2022-08-18T09:22:05.777Z,3.63
2022-08-18T09:23:25.303Z,3.78
2022-08-18T09:24:56.686Z,3.13
2022-08-18T09:26:40.665Z,3.40
2022-08-18T09:28:10.049Z,3.30
2022-08-18T09:29:44.043Z,3.42
2022-08-18T09:30:55.398Z,3.28
2022-08-18T09:33:55.161Z,2.90
2022-08-18T09:35:13.185Z,4.00
2022-08-18T09:36:59.671Z,3.97
2022-08-18T09:38:36.442Z,4.35
2022-08-18T09:40:12.980Z,4.40
2022-08-18T09:41:33.100Z,4.13
2022-08-18T09:42:58.288Z,3.58
2022-08-18T09:44:17.816Z,4.45
2022-08-18T09:45:33.627Z,4.30
2022-08-18T09:46:44.046Z,4.22
2022-08-18T09:47:53.885Z,4.22
2022-08-18T09:49:26.668Z,4.30
2022-08-18T09:50:51.403Z,4.00
2022-08-18T09:52:20.870Z,4.00
2022-08-18T09:53:48.422Z,4.07
2022-08-18T09:54:53.411Z,3.67
2022-08-18T09:56:01.596Z,3.65
2022-08-18T09:57:19.470Z,3.85
2022-08-18T09:58:27.125Z,3.50
2022-08-18T09:59:34.256Z,4.05
2022-08-18T10:00:38.949Z,4.15
2022-08-18T10:01:43.690Z,4.10
2022-08-18T10:02:56.635Z,3.35
2022-08-18T10:04:29.121Z,3.92
2022-08-18T10:05:35.604Z,3.90
2022-08-18T10:06:42.860Z,3.45
2022-08-18T10:08:21.563Z,3.17
2022-08-18T10:10:59.397Z,3.25
2022-08-18T10:12:05.686Z,3.95
2022-08-18T10:13:49.518Z,3.92
2022-08-18T10:15:32.784Z,4.10
2022-08-18T10:17:21.851Z,3.25
2022-08-18T10:19:27.615Z,4.07
2022-08-18T10:21:07.731Z,4.25
2022-08-18T10:22:12.873Z,4.03
2022-08-18T10:24:14.782Z,3.65
2022-08-18T10:25:43.245Z,4.25
2022-08-18T10:26:54.762Z,3.20
2022-08-18T10:27:59.222Z,4.30
2022-08-18T10:29:34.746Z,3.25
2022-08-18T10:30:56.904Z,4.28
2022-08-18T10:32:01.741Z,3.92
2022-08-18T10:33:17.609Z,3.97
2022-08-18T10:34:51.576Z,3.47
2022-08-18T10:37:49.165Z,3.45
2022-08-18T10:38:54.708Z,4.28
2022-08-18T10:40:05.052Z,3.47
2022-08-18T10:41:23.210Z,3.67
2022-08-18T10:42:47.706Z,3.75
2022-08-18T10:43:57.915Z,3.10
2022-08-18T10:45:11.793Z,3.83
2022-08-18T10:46:27.813Z,3.63
2022-08-18T10:47:35.331Z,3.63
2022-08-18T10:48:40.214Z,3.60
2022-08-18T10:49:51.344Z,3.67
2022-08-18T10:51:57.904Z,3.60
2022-08-18T10:53:44.491Z,4.43
2022-08-18T10:55:23.031Z,3.42
2022-08-18T10:57:13.840Z,3.40
2022-08-18T10:58:50.940Z,3.85
2022-08-18T11:00:17.814Z,4.03
2022-08-18T11:01:38.620Z,3.65
2022-08-18T11:03:52.195Z,4.57
2022-08-18T11:05:09.878Z,3.85
2022-08-18T11:06:23.659Z,3.50
2022-08-18T11:07:34.348Z,3.85
2022-08-18T11:08:47.083Z,3.20
2022-08-18T11:10:27.829Z,3.42
2022-08-18T11:11:38.091Z,3.65
2022-08-18T11:13:28.538Z,3.85
2022-08-18T11:15:22.232Z,4.07
2022-08-18T11:16:44.058Z,3.67
2022-08-18T11:18:46.408Z,3.30
2022-08-18T11:19:56.067Z,3.53
2022-08-18T11:21:27.260Z,3.47
2022-08-18T11:22:36.603Z,3.75
2022-08-18T11:23:41.609Z,3.22
2022-08-18T11:24:46.479Z,3.83
2022-08-18T11:25:50.238Z,3.85
2022-08-18T11:27:15.196Z,2.88
2022-08-18T11:28:30.131Z,2.58
2022-08-18T11:29:38.810Z,3.20
2022-08-18T11:30:48.184Z,3.30
2022-08-18T11:32:23.290Z,2.95
2022-08-18T11:33:28.200Z,3.38
2022-08-18T11:34:51.868Z,2.80
2022-08-18T11:36:01.173Z,3.45
2022-08-18T11:37:20.033Z,2.80
2022-08-18T11:38:24.480Z,3.40
2022-08-18T11:39:38.360Z,2.53
2022-08-18T11:42:27.022Z,3.47
2022-08-18T11:43:42.171Z,3.90
2022-08-18T11:45:27.347Z,3.30
2022-08-18T11:46:39.472Z,2.72
2022-08-18T11:48:52.123Z,2.60
2022-08-18T11:50:13.668Z,3.60
2022-08-18T11:51:27.514Z,3.33
2022-08-18T11:52:34.616Z,3.22
2022-08-18T11:53:57.396Z,2.95
2022-08-18T11:55:24.557Z,3.38
2022-08-18T11:56:38.792Z,2.58
2022-08-18T11:57:59.721Z,2.70
2022-08-18T12:01:01.669Z,3.65
2022-08-18T12:02:11.730Z,3.20
2022-08-18T12:03:41.918Z,2.95
2022-08-18T12:04:54.280Z,2.78
2022-08-18T12:06:19.049Z,3.63
2022-08-18T12:07:35.423Z,3.03
2022-08-18T12:09:24.450Z,3.35
2022-08-18T12:10:39.212Z,3.28
2022-08-18T12:12:18.356Z,3.50
2022-08-18T12:13:25.585Z,3.08
2022-08-18T12:14:51.925Z,3.25
2022-08-18T12:16:31.989Z,3.00
2022-08-18T12:17:35.870Z,3.13
2022-08-18T12:18:40.721Z,3.53
2022-08-18T12:19:45.903Z,3.10
2022-08-18T12:20:51.265Z,3.35
2022-08-18T12:22:00.197Z,2.75
2022-08-18T12:23:04.567Z,2.60
2022-08-18T12:24:29.301Z,3.30
2022-08-18T12:25:38.907Z,3.60
2022-08-18T12:26:47.373Z,3.30
2022-08-18T12:27:51.580Z,3.45
2022-08-18T12:29:01.127Z,3.20
2022-08-18T12:30:16.697Z,3.28
2022-08-18T12:31:21.252Z,3.00
2022-08-18T12:32:49.738Z,3.53
2022-08-18T12:34:01.244Z,3.22
2022-08-18T12:35:12.053Z,3.40
2022-08-18T12:36:16.221Z,3.47
2022-08-18T12:37:58.456Z,3.35
2022-08-18T12:38:52.049Z,3.28
2022-08-18T12:40:01.106Z,2.80
2022-08-18T12:41:05.993Z,3.15
2022-08-18T12:42:10.170Z,3.35
2022-08-18T12:43:14.107Z,3.50
2022-08-18T12:44:18.584Z,3.63
2022-08-18T12:45:26.023Z,3.15
2022-08-18T12:46:32.107Z,2.80
2022-08-18T12:47:41.143Z,2.83
2022-08-18T12:48:46.684Z,3.25
2022-08-18T12:49:51.676Z,3.00
2022-08-18T12:50:58.528Z,3.08
2022-08-18T12:52:06.515Z,2.85
2022-08-18T12:53:12.256Z,2.97
2022-08-18T12:54:17.363Z,2.85
2022-08-18T12:55:22.333Z,3.13
2022-08-18T12:56:32.093Z,3.22
2022-08-18T12:59:05.806Z,2.97
2022-08-18T13:00:16.833Z,2.83
2022-08-18T13:01:25.229Z,3.55
2022-08-18T13:02:29.287Z,2.97
2022-08-18T13:03:33.593Z,3.20
2022-08-18T13:04:39.827Z,3.20
2022-08-18T13:05:44.451Z,3.15
2022-08-18T13:07:02.157Z,3.35
2022-08-18T13:08:27.629Z,2.92
2022-08-18T13:09:53.608Z,2.80
2022-08-18T13:11:15.257Z,2.90
2022-08-18T13:12:26.199Z,3.83
2022-08-18T13:13:31.663Z,3.60
2022-08-18T13:14:36.409Z,2.97
2022-08-18T13:15:44.425Z,3.45
2022-08-18T13:17:03.391Z,3.05
2022-08-18T13:18:14.602Z,2.85
2022-08-18T13:19:18.412Z,3.45
2022-08-18T13:20:22.495Z,2.83
2022-08-18T13:21:26.482Z,2.35
2022-08-18T13:22:44.150Z,2.80
2022-08-18T13:23:48.044Z,3.30
2022-08-18T13:24:52.928Z,2.38
2022-08-18T13:26:02.136Z,3.47
2022-08-18T13:27:13.583Z,3.08
2022-08-18T13:28:27.047Z,3.05
2022-08-18T13:29:34.391Z,3.53
2022-08-18T13:30:42.279Z,3.80
2022-08-18T13:31:55.789Z,2.92
2022-08-18T13:33:05.402Z,3.25
2022-08-18T13:34:29.836Z,3.53
2022-08-18T13:35:38.431Z,2.58
2022-08-18T13:36:48.691Z,3.30
2022-08-18T13:37:54.518Z,3.42
2022-08-18T13:39:01.748Z,2.90
2022-08-18T13:40:12.635Z,3.10
2022-08-18T13:41:17.017Z,2.88
2022-08-18T13:42:26.161Z,3.38
2022-08-18T13:43:42.200Z,3.30
2022-08-18T13:44:53.066Z,3.08
2022-08-18T13:45:57.631Z,2.70
2022-08-18T13:47:01.566Z,2.85
2022-08-18T13:48:05.777Z,3.10
2022-08-18T13:49:10.092Z,2.83
2022-08-18T13:50:14.572Z,3.03
2022-08-18T13:51:24.949Z,2.45
2022-08-18T13:52:36.172Z,3.17
2022-08-18T13:53:51.020Z,2.83
2022-08-18T13:55:08.378Z,3.10
2022-08-18T13:56:15.881Z,3.17
2022-08-18T13:57:23.051Z,2.72
2022-08-18T13:58:29.281Z,3.03
2022-08-18T13:59:35.159Z,2.95
2022-08-18T14:00:41.221Z,2.75
2022-08-18T14:01:51.938Z,2.92
2022-08-18T14:02:58.966Z,2.67
2022-08-18T14:04:03.270Z,3.63
2022-08-18T14:05:10.016Z,2.80
2022-08-18T14:06:18.405Z,3.08
2022-08-18T14:07:27.732Z,3.17
2022-08-18T14:08:33.070Z,2.90
2022-08-18T14:09:38.460Z,3.08
2022-08-18T14:10:42.401Z,2.80
2022-08-18T14:11:51.201Z,3.20
2022-08-18T14:12:59.585Z,3.03
2022-08-18T14:14:05.677Z,2.28
2022-08-18T14:15:14.983Z,2.47
2022-08-18T14:16:21.350Z,3.10
2022-08-18T14:17:26.429Z,2.95
2022-08-18T14:18:30.874Z,3.10
2022-08-18T14:19:53.600Z,2.92
2022-08-18T14:21:22.941Z,2.92
2022-08-18T14:22:46.351Z,2.70
2022-08-18T14:24:14.230Z,3.35
2022-08-18T14:25:36.943Z,2.60
2022-08-18T14:26:50.088Z,3.72
2022-08-18T14:27:56.925Z,3.05
2022-08-18T14:29:00.668Z,3.13
2022-08-18T14:30:15.311Z,3.35
2022-08-18T14:31:20.741Z,2.50
2022-08-18T14:32:30.038Z,3.03
2022-08-18T14:33:50.667Z,2.83
2022-08-18T14:35:00.635Z,3.58
2022-08-18T14:36:09.583Z,3.30
2022-08-18T14:37:14.515Z,2.92
2022-08-18T14:38:19.571Z,3.20
2022-08-18T14:39:23.410Z,3.47
2022-08-18T14:40:29.822Z,3.47
2022-08-18T14:41:35.817Z,3.00
2022-08-18T14:42:54.437Z,2.95
2022-08-18T14:44:13.593Z,3.97
2022-08-18T14:45:31.564Z,3.30
2022-08-18T14:46:40.967Z,2.65
2022-08-18T14:47:45.266Z,3.35
2022-08-18T14:48:54.579Z,2.47
2022-08-18T14:50:00.579Z,3.63
2022-08-18T14:51:04.842Z,2.97
2022-08-18T14:52:14.143Z,3.42
2022-08-18T14:53:20.888Z,3.05
2022-08-18T14:54:28.676Z,3.28
2022-08-18T14:55:35.093Z,4.28
2022-08-18T14:56:39.913Z,3.05
2022-08-18T14:57:45.941Z,3.30
2022-08-18T14:58:50.209Z,3.28
2022-08-18T14:59:55.692Z,2.90
2022-08-18T15:01:11.104Z,3.28
2022-08-18T15:02:15.880Z,2.72
2022-08-18T15:03:20.130Z,3.03
2022-08-18T15:04:24.548Z,3.40
2022-08-18T15:05:33.692Z,2.58
2022-08-18T15:06:38.062Z,3.50
2022-08-18T15:07:42.374Z,3.25
2022-08-18T15:08:46.878Z,2.70
2022-08-18T15:09:51.189Z,2.85
2022-08-18T15:11:16.743Z,2.92
2022-08-18T15:12:21.690Z,3.47
2022-08-18T15:13:26.684Z,3.45
2022-08-18T15:14:35.019Z,3.03
2022-08-18T15:15:42.294Z,2.95
2022-08-18T15:16:54.821Z,2.50
2022-08-18T15:18:00.441Z,3.17
2022-08-18T15:19:58.160Z,3.63
2022-08-18T15:20:29.745Z,3.08
2022-08-18T15:21:52.598Z,3.25
2022-08-18T15:23:24.743Z,3.17
2022-08-18T15:24:47.638Z,3.22
2022-08-18T15:25:52.212Z,3.65
2022-08-18T15:27:05.489Z,3.08
2022-08-18T15:28:16.450Z,2.80
2022-08-18T15:29:22.459Z,3.25
2022-08-18T15:30:27.099Z,3.42
2022-08-18T15:32:55.860Z,2.88
2022-08-18T15:33:59.559Z,3.47
2022-08-18T15:35:11.740Z,4.38
2022-08-18T15:36:20.155Z,3.85
2022-08-18T15:37:37.534Z,4.25
2022-08-18T15:38:41.440Z,4.22
2022-08-18T15:39:45.463Z,3.60
2022-08-18T15:41:06.150Z,4.32
2022-08-18T15:42:13.665Z,3.65
2022-08-18T15:43:20.771Z,3.58
2022-08-18T15:44:24.993Z,5.07
2022-08-18T15:45:35.643Z,4.38
2022-08-18T15:46:53.176Z,3.85
2022-08-18T15:47:57.664Z,3.95
2022-08-18T15:49:05.359Z,5.38
2022-08-18T15:50:21.801Z,5.80
2022-08-18T15:51:35.432Z,4.05
2022-08-18T15:53:00.828Z,4.30
2022-08-18T15:54:07.240Z,3.97
2022-08-18T15:55:16.949Z,4.40
2022-08-18T15:56:26.097Z,3.38
2022-08-18T15:57:39.538Z,3.65
2022-08-18T15:58:46.962Z,3.08
2022-08-18T15:59:51.695Z,2.92
2022-08-18T16:00:55.676Z,2.97
2022-08-18T16:02:01.222Z,2.83
2022-08-18T16:03:09.006Z,3.40
2022-08-18T16:04:15.696Z,3.67
2022-08-18T16:05:24.190Z,5.03
2022-08-18T16:06:32.490Z,3.20
2022-08-18T16:07:52.212Z,3.00
2022-08-18T16:08:58.114Z,3.40
2022-08-18T16:10:04.620Z,2.78
2022-08-18T16:11:28.993Z,2.88
2022-08-18T16:12:34.090Z,3.08
2022-08-18T16:13:39.010Z,2.70
2022-08-18T16:14:42.937Z,3.45
2022-08-18T16:15:50.263Z,3.30
2022-08-18T16:16:57.080Z,3.67
2022-08-18T16:18:01.464Z,3.70
2022-08-18T16:19:08.028Z,3.50
2022-08-18T16:20:14.886Z,3.08
2022-08-18T16:21:23.409Z,2.80
2022-08-18T16:22:29.978Z,3.17
2022-08-18T16:23:33.952Z,3.40
2022-08-18T16:24:41.225Z,3.03
2022-08-18T16:25:45.958Z,2.65
2022-08-18T16:26:52.117Z,2.80
2022-08-18T16:27:58.146Z,2.70
2022-08-18T16:29:02.308Z,2.38
2022-08-18T16:30:07.931Z,3.58
2022-08-18T16:31:16.943Z,2.53
2022-08-18T16:32:20.909Z,2.45
2022-08-18T16:33:24.935Z,3.17
2022-08-18T16:34:30.967Z,3.00
2022-08-18T16:35:37.463Z,2.55
2022-08-18T16:36:41.234Z,2.85
2022-08-18T16:37:46.986Z,3.13
2022-08-18T16:38:53.322Z,2.67
2022-08-18T16:39:57.679Z,2.50
2022-08-18T16:41:13.979Z,2.55
2022-08-18T16:42:18.042Z,2.40